Terminal Aerodrome Forecast
Issued by NWS

Home | Current Version | Previous Version | Text Only | Print | Product List | Glossary On
Versions: 1 2 3 4 5 6 7 8 9 10 11 12 13 14 15 16 17 18 19 20 21 22 23 24
908
FTUS43 KLSX 150520
TAFCPS
TAF
KCPS 150520Z 1506/1606 00000KT 3SM BR SCT002
      TEMPO 1506/1510 1SM BR BKN002
     FM151000 00000KT 1/2SM FG VV002
     FM151400 20005KT P6SM BKN015
     FM151700 17005KT P6SM SCT030 BKN250
     FM160100 VRB03KT P6SM SCT250=

USA.gov is the U.S. government's official web portal to all federal, state and local government web resources and services.